Eaton, New Hampshire
Current Conditions -  °F | °C
As of 4:21 PM on Wednesday 26 Nov 2014 (Local Time) from KIZG Reporting Station
Light Snow Light Snow  
Wind Chill: 26°   Ceiling: 600
Heat Index: 32°   Visibility: 1mi
Dew Point: 31°   Wind: 6mph
Humidity: 96%   Direction: 10°N
Pressure: 30.07"   Gusts: NA
Location:  43.9094°N, 71.0845°W
Report Text: KIZG 262121Z AUTO 01005KT 1SM -SN BR VV006 00/M01 A3007 RMK AO2 PRESFR P0003 T00001006
Loading
Personal Weather Stations






























Interactive Weather Map New forecast layout! Learn more

10-Day Weather Forecast

Advertisements
Track Severe Weather on mobile